createdAt,value
2017-12-01T00:00:07.210Z,977.25
2017-12-01T00:01:14.117Z,977.28
2017-12-01T00:02:20.909Z,977.20
2017-12-01T00:03:27.727Z,977.27
2017-12-01T00:04:34.509Z,977.25
2017-12-01T00:05:41.285Z,977.26
2017-12-01T00:06:48.098Z,977.30
2017-12-01T00:07:54.869Z,977.32
2017-12-01T00:09:01.705Z,977.35
2017-12-01T00:10:08.354Z,977.34
2017-12-01T00:11:15.142Z,977.29
2017-12-01T00:12:21.950Z,977.30
2017-12-01T00:13:28.733Z,977.24
2017-12-01T00:14:35.532Z,977.30
2017-12-01T00:15:42.353Z,977.31
2017-12-01T00:16:49.172Z,977.26
2017-12-01T00:17:55.966Z,977.35
2017-12-01T00:19:02.753Z,977.35
2017-12-01T00:20:09.553Z,977.31
2017-12-01T00:21:16.364Z,977.32
2017-12-01T00:22:23.214Z,977.31
2017-12-01T00:23:30.109Z,977.38
2017-12-01T00:24:37.017Z,977.43
2017-12-01T00:25:43.801Z,977.38
2017-12-01T00:26:50.942Z,977.36
2017-12-01T00:27:57.774Z,977.32
2017-12-01T00:29:04.602Z,977.30
2017-12-01T00:30:11.439Z,977.38
2017-12-01T00:31:18.241Z,977.31
2017-12-01T00:32:25.075Z,977.35
2017-12-01T00:33:31.896Z,977.30
2017-12-01T00:34:40.585Z,977.34
2017-12-01T00:35:45.437Z,977.42
2017-12-01T00:36:52.257Z,977.41
2017-12-01T00:37:59.178Z,977.44
2017-12-01T00:39:05.994Z,977.43
2017-12-01T00:40:12.806Z,977.41
2017-12-01T00:41:19.642Z,977.36
2017-12-01T00:42:26.449Z,977.34
2017-12-01T00:43:33.246Z,977.38
2017-12-01T00:44:43.249Z,977.40
2017-12-01T00:45:47.030Z,977.37
2017-12-01T00:46:53.881Z,977.45
2017-12-01T00:48:00.713Z,977.45
2017-12-01T00:49:07.880Z,977.44
2017-12-01T00:50:14.659Z,977.42
2017-12-01T00:51:21.468Z,977.41
2017-12-01T00:52:28.335Z,977.44
2017-12-01T00:53:35.182Z,977.44
2017-12-01T00:54:41.970Z,977.44
2017-12-01T00:55:48.849Z,977.41
2017-12-01T00:56:55.657Z,977.40
2017-12-01T00:58:02.479Z,977.42
2017-12-01T00:59:09.293Z,977.37
2017-12-01T01:00:16.123Z,977.43
2017-12-01T01:01:22.920Z,977.47
2017-12-01T01:02:29.817Z,977.39
2017-12-01T01:03:36.596Z,977.43
2017-12-01T01:04:43.424Z,977.46
2017-12-01T01:05:50.285Z,977.41
2017-12-01T01:06:57.117Z,977.45
2017-12-01T01:08:04.026Z,977.41
2017-12-01T01:09:10.859Z,977.44
2017-12-01T01:10:17.656Z,977.49
2017-12-01T01:11:24.461Z,977.52
2017-12-01T01:12:31.281Z,977.54
2017-12-01T01:13:38.134Z,977.52
2017-12-01T01:14:45.006Z,977.52
2017-12-01T01:15:51.802Z,977.59
2017-12-01T01:16:58.669Z,977.57
2017-12-01T01:18:05.458Z,977.66
2017-12-01T01:19:12.273Z,977.60
2017-12-01T01:20:19.117Z,977.64
2017-12-01T01:21:25.993Z,977.63
2017-12-01T01:22:32.925Z,977.68
2017-12-01T01:23:39.829Z,977.60
2017-12-01T01:24:46.698Z,977.62
2017-12-01T01:25:53.529Z,977.65
2017-12-01T01:27:00.330Z,977.62
2017-12-01T01:28:07.162Z,977.66
2017-12-01T01:29:14.296Z,977.71
2017-12-01T01:30:21.086Z,977.68
2017-12-01T01:31:27.898Z,977.71
2017-12-01T01:32:34.704Z,977.74
2017-12-01T01:33:41.557Z,977.77
2017-12-01T01:34:48.490Z,977.74
2017-12-01T01:35:55.344Z,977.76
2017-12-01T01:37:02.289Z,977.78
2017-12-01T01:38:09.073Z,977.78
2017-12-01T01:39:15.894Z,977.81
2017-12-01T01:40:22.745Z,977.86
2017-12-01T01:41:29.548Z,977.80
2017-12-01T01:42:36.501Z,977.79
2017-12-01T01:43:43.373Z,977.81
2017-12-01T01:44:50.321Z,977.81
2017-12-01T01:45:57.228Z,977.88
2017-12-01T01:47:04.072Z,977.87
2017-12-01T01:48:10.945Z,977.93
2017-12-01T01:49:17.906Z,977.97
2017-12-01T01:50:24.773Z,977.93
2017-12-01T01:51:31.685Z,977.98
2017-12-01T01:52:38.529Z,978.01
2017-12-01T01:53:45.444Z,977.99
2017-12-01T01:54:52.294Z,977.89
2017-12-01T01:55:59.277Z,977.97
2017-12-01T01:57:06.096Z,977.91
2017-12-01T01:58:13.034Z,977.94
2017-12-01T01:59:19.852Z,977.89
2017-12-01T02:00:26.819Z,978.00
2017-12-01T02:01:33.698Z,977.98
2017-12-01T02:02:40.593Z,977.95
2017-12-01T02:03:47.426Z,977.94
2017-12-01T02:04:54.395Z,977.96
2017-12-01T02:06:01.366Z,977.99
2017-12-01T02:07:08.196Z,977.94
2017-12-01T02:08:15.032Z,978.03
2017-12-01T02:09:21.981Z,978.03
2017-12-01T02:10:28.833Z,978.04
2017-12-01T02:11:35.777Z,978.06
2017-12-01T02:12:42.650Z,977.99
2017-12-01T02:13:49.562Z,977.99
2017-12-01T02:14:56.566Z,978.07
2017-12-01T02:16:03.422Z,978.13
2017-12-01T02:17:10.280Z,978.00
2017-12-01T02:18:17.157Z,978.09
2017-12-01T02:19:24.001Z,978.07
2017-12-01T02:20:31.077Z,978.12
2017-12-01T02:21:37.965Z,978.12
2017-12-01T02:22:44.876Z,978.09
2017-12-01T02:23:51.759Z,978.14
2017-12-01T02:24:58.615Z,978.11
2017-12-01T02:26:05.606Z,978.15
2017-12-01T02:27:12.606Z,978.17
2017-12-01T02:28:19.481Z,978.14
2017-12-01T02:29:26.417Z,978.20
2017-12-01T02:30:33.280Z,978.16
2017-12-01T02:31:40.143Z,978.14
2017-12-01T02:32:47.085Z,978.21
2017-12-01T02:33:53.967Z,978.24
2017-12-01T02:35:00.873Z,978.17
2017-12-01T02:36:07.781Z,978.17
2017-12-01T02:37:14.757Z,978.20
2017-12-01T02:38:21.644Z,978.24
2017-12-01T02:39:28.580Z,978.18
2017-12-01T02:40:35.345Z,978.18
2017-12-01T02:41:42.593Z,978.18
2017-12-01T02:42:48.997Z,978.26
2017-12-01T02:43:55.872Z,978.26
2017-12-01T02:45:02.781Z,978.26
2017-12-01T02:46:09.859Z,978.29
2017-12-01T02:47:16.821Z,978.25
2017-12-01T02:48:23.709Z,978.23
2017-12-01T02:49:30.574Z,978.17
2017-12-01T02:50:37.462Z,978.25
2017-12-01T02:51:44.338Z,978.26
2017-12-01T02:52:51.270Z,978.26
2017-12-01T02:53:58.125Z,978.25
2017-12-01T02:55:05.034Z,978.29
2017-12-01T02:56:11.906Z,978.27
2017-12-01T02:57:18.830Z,978.27
2017-12-01T02:58:25.736Z,978.32
2017-12-01T02:59:32.989Z,978.32
2017-12-01T03:00:39.362Z,978.29
2017-12-01T03:01:46.253Z,978.33
2017-12-01T03:02:53.150Z,978.31
2017-12-01T03:04:00.045Z,978.33
2017-12-01T03:05:06.917Z,978.35
2017-12-01T03:06:13.765Z,978.33
2017-12-01T03:07:20.713Z,978.36
2017-12-01T03:08:27.613Z,978.38
2017-12-01T03:09:34.524Z,978.31
2017-12-01T03:10:41.397Z,978.34
2017-12-01T03:11:48.301Z,978.34
2017-12-01T03:12:55.213Z,978.37
2017-12-01T03:14:02.114Z,978.35
2017-12-01T03:15:09.036Z,978.41
2017-12-01T03:16:15.888Z,978.42
2017-12-01T03:17:22.766Z,978.45
2017-12-01T03:18:29.703Z,978.43
2017-12-01T03:19:36.671Z,978.33
2017-12-01T03:20:43.532Z,978.43
2017-12-01T03:21:50.418Z,978.41
2017-12-01T03:22:57.338Z,978.41
2017-12-01T03:24:04.245Z,978.45
2017-12-01T03:25:11.152Z,978.49
2017-12-01T03:26:18.051Z,978.43
2017-12-01T03:27:24.909Z,978.50
2017-12-01T03:28:31.764Z,978.49
2017-12-01T03:29:38.662Z,978.51
2017-12-01T03:30:45.547Z,978.52
2017-12-01T03:31:52.513Z,978.54
2017-12-01T03:32:59.378Z,978.54
2017-12-01T03:34:06.245Z,978.53
2017-12-01T03:35:13.134Z,978.50
2017-12-01T03:36:20.047Z,978.59
2017-12-01T03:37:26.962Z,978.57
2017-12-01T03:38:33.835Z,978.56
2017-12-01T03:39:40.745Z,978.64
2017-12-01T03:40:47.634Z,978.63
2017-12-01T03:41:54.753Z,978.67
2017-12-01T03:43:01.569Z,978.59
2017-12-01T03:44:08.528Z,978.65
2017-12-01T03:45:15.424Z,978.68
2017-12-01T03:46:22.334Z,978.70
2017-12-01T03:47:29.221Z,978.68
2017-12-01T03:48:36.106Z,978.73
2017-12-01T03:49:42.997Z,978.71
2017-12-01T03:50:49.921Z,978.76
2017-12-01T03:51:56.809Z,978.79
2017-12-01T03:53:03.681Z,978.79
2017-12-01T03:54:10.558Z,978.85
2017-12-01T03:55:17.486Z,978.82
2017-12-01T03:56:24.350Z,978.84
2017-12-01T03:57:31.271Z,978.86
2017-12-01T03:58:38.154Z,978.84
2017-12-01T03:59:45.057Z,978.86
2017-12-01T04:00:51.933Z,978.85
2017-12-01T04:01:58.877Z,978.89
2017-12-01T04:03:05.769Z,978.83
2017-12-01T04:04:12.669Z,978.93
2017-12-01T04:05:19.542Z,978.91
2017-12-01T04:06:26.444Z,978.94
2017-12-01T04:07:33.410Z,978.89
2017-12-01T04:08:40.305Z,978.90
2017-12-01T04:09:47.190Z,978.92
2017-12-01T04:10:54.029Z,978.90
2017-12-01T04:12:00.981Z,978.99
2017-12-01T04:13:07.852Z,978.93
2017-12-01T04:14:14.725Z,978.92
2017-12-01T04:15:21.634Z,979.04
2017-12-01T04:16:28.529Z,979.00
2017-12-01T04:17:35.493Z,979.04
2017-12-01T04:18:42.379Z,979.11
2017-12-01T04:19:49.219Z,979.07
2017-12-01T04:20:56.089Z,979.10
2017-12-01T04:22:02.963Z,979.06
2017-12-01T04:23:09.844Z,979.01
2017-12-01T04:24:16.721Z,979.20
2017-12-01T04:25:23.653Z,979.13
2017-12-01T04:26:30.560Z,979.16
2017-12-01T04:27:37.464Z,979.15
2017-12-01T04:28:44.375Z,979.10
2017-12-01T04:29:51.262Z,979.17
2017-12-01T04:30:58.115Z,979.16
2017-12-01T04:32:05.039Z,979.16
2017-12-01T04:33:11.897Z,979.12
2017-12-01T04:34:18.768Z,979.09
2017-12-01T04:35:25.633Z,979.21
2017-12-01T04:36:32.512Z,979.15
2017-12-01T04:37:39.422Z,979.16
2017-12-01T04:38:46.380Z,979.24
2017-12-01T04:39:53.622Z,979.22
2017-12-01T04:40:59.968Z,979.20
2017-12-01T04:42:06.937Z,979.22
2017-12-01T04:43:13.825Z,979.27
2017-12-01T04:44:20.717Z,979.32
2017-12-01T04:45:27.628Z,979.31
2017-12-01T04:46:34.663Z,979.32
2017-12-01T04:47:41.686Z,979.33
2017-12-01T04:48:48.605Z,979.33
2017-12-01T04:49:55.441Z,979.38
2017-12-01T04:51:02.350Z,979.38
2017-12-01T04:52:09.211Z,979.34
2017-12-01T04:53:16.113Z,979.45
2017-12-01T04:54:22.987Z,979.48
2017-12-01T04:55:29.864Z,979.48
2017-12-01T04:56:36.776Z,979.48
2017-12-01T04:57:43.668Z,979.44
2017-12-01T04:58:50.593Z,979.55
2017-12-01T04:59:57.484Z,979.57
2017-12-01T05:01:04.391Z,979.53
2017-12-01T05:02:11.320Z,979.58
2017-12-01T05:03:18.416Z,979.54
2017-12-01T05:04:25.277Z,979.61
2017-12-01T05:05:32.144Z,979.69
2017-12-01T05:06:39.020Z,979.53
2017-12-01T05:07:45.913Z,979.58
2017-12-01T05:08:52.857Z,979.59
2017-12-01T05:09:59.733Z,979.65
2017-12-01T05:11:06.596Z,979.73
2017-12-01T05:12:13.509Z,979.79
2017-12-01T05:13:20.402Z,979.76
2017-12-01T05:14:27.298Z,979.75
2017-12-01T05:15:34.194Z,979.75
2017-12-01T05:16:41.088Z,979.86
2017-12-01T05:17:47.992Z,979.78
2017-12-01T05:18:54.849Z,979.80
2017-12-01T05:20:01.782Z,979.82
2017-12-01T05:21:08.786Z,979.84
2017-12-01T05:22:15.686Z,979.79
2017-12-01T05:23:22.650Z,979.82
2017-12-01T05:24:29.533Z,979.85
2017-12-01T05:25:36.494Z,979.79
2017-12-01T05:26:43.296Z,979.85
2017-12-01T05:27:50.266Z,979.88
2017-12-01T05:28:57.125Z,979.87
2017-12-01T05:30:04.058Z,979.87
2017-12-01T05:31:11.015Z,979.89
2017-12-01T05:32:17.878Z,979.96
2017-12-01T05:33:24.740Z,979.88
2017-12-01T05:34:31.641Z,979.93
2017-12-01T05:35:38.546Z,979.97
2017-12-01T05:36:45.426Z,979.94
2017-12-01T05:37:52.269Z,979.98
2017-12-01T05:38:59.188Z,979.98
2017-12-01T05:40:06.104Z,979.97
2017-12-01T05:41:12.964Z,980.09
2017-12-01T05:42:19.882Z,980.07
2017-12-01T05:43:26.765Z,979.98
2017-12-01T05:44:33.681Z,980.09
2017-12-01T05:45:40.633Z,980.11
2017-12-01T05:46:47.860Z,980.09
2017-12-01T05:47:54.777Z,980.12
2017-12-01T05:49:01.694Z,980.11
2017-12-01T05:50:08.593Z,980.02
2017-12-01T05:51:15.714Z,980.12
2017-12-01T05:52:22.642Z,980.14
2017-12-01T05:53:29.525Z,980.11
2017-12-01T05:54:36.489Z,980.13
2017-12-01T05:55:43.378Z,980.19
2017-12-01T05:56:50.121Z,980.13
2017-12-01T05:57:57.020Z,980.12
2017-12-01T05:59:03.885Z,980.20
2017-12-01T06:00:10.810Z,980.18
2017-12-01T06:01:17.742Z,980.17
2017-12-01T06:02:24.706Z,980.14
2017-12-01T06:03:31.570Z,980.22
2017-12-01T06:04:38.449Z,980.27
2017-12-01T06:05:45.331Z,980.23
2017-12-01T06:06:52.293Z,980.27
2017-12-01T06:07:59.268Z,980.29
2017-12-01T06:09:06.505Z,980.35
2017-12-01T06:10:13.383Z,980.38
2017-12-01T06:11:20.276Z,980.41
2017-12-01T06:12:27.175Z,980.49
2017-12-01T06:13:34.076Z,980.47
2017-12-01T06:14:40.978Z,980.50
2017-12-01T06:15:47.862Z,980.45
2017-12-01T06:16:54.889Z,980.52
2017-12-01T06:18:01.834Z,980.54
2017-12-01T06:19:08.778Z,980.59
2017-12-01T06:20:15.709Z,980.60
2017-12-01T06:21:22.714Z,980.58
2017-12-01T06:22:29.585Z,980.58
2017-12-01T06:23:36.476Z,980.61
2017-12-01T06:24:43.349Z,980.69
2017-12-01T06:25:50.357Z,980.73
2017-12-01T06:26:57.228Z,980.69
2017-12-01T06:28:04.158Z,980.71
2017-12-01T06:29:11.097Z,980.76
2017-12-01T06:30:17.955Z,980.76
2017-12-01T06:31:24.951Z,980.81
2017-12-01T06:32:31.844Z,980.76
2017-12-01T06:33:38.869Z,980.82
2017-12-01T06:34:45.760Z,980.80
2017-12-01T06:35:52.724Z,980.84
2017-12-01T06:36:59.591Z,980.87
2017-12-01T06:38:06.464Z,980.92
2017-12-01T06:39:13.352Z,980.98
2017-12-01T06:40:20.232Z,980.96
2017-12-01T06:41:27.116Z,980.96
2017-12-01T06:42:34.016Z,980.95
2017-12-01T06:43:40.922Z,980.93
2017-12-01T06:44:47.797Z,980.96
2017-12-01T06:45:54.680Z,980.97
2017-12-01T06:47:01.585Z,981.04
2017-12-01T06:48:08.493Z,981.08
2017-12-01T06:49:15.417Z,981.12
2017-12-01T06:50:22.329Z,981.08
2017-12-01T06:51:29.159Z,981.16
2017-12-01T06:52:36.053Z,981.23
2017-12-01T06:53:42.939Z,981.22
2017-12-01T06:54:49.800Z,981.27
2017-12-01T06:55:56.713Z,981.25
2017-12-01T06:57:03.678Z,981.34
2017-12-01T06:58:10.581Z,981.32
2017-12-01T06:59:17.516Z,981.29
2017-12-01T07:00:24.459Z,981.34
2017-12-01T07:01:31.266Z,981.33
2017-12-01T07:02:38.086Z,981.34
2017-12-01T07:03:44.925Z,981.41
2017-12-01T07:04:51.863Z,981.43
2017-12-01T07:05:58.778Z,981.43
2017-12-01T07:07:05.658Z,981.39
2017-12-01T07:08:12.577Z,981.50
2017-12-01T07:09:19.397Z,981.56
2017-12-01T07:10:26.229Z,981.52
2017-12-01T07:11:33.010Z,981.51
2017-12-01T07:12:39.822Z,981.59
2017-12-01T07:13:46.661Z,981.63
2017-12-01T07:14:53.438Z,981.52
2017-12-01T07:16:00.301Z,981.63
2017-12-01T07:17:07.418Z,981.64
2017-12-01T07:18:14.250Z,981.59
2017-12-01T07:19:21.001Z,981.67
2017-12-01T07:20:27.772Z,981.66
2017-12-01T07:21:34.544Z,981.68
2017-12-01T07:22:41.265Z,981.71
2017-12-01T07:23:48.076Z,981.74
2017-12-01T07:24:54.820Z,981.80
2017-12-01T07:26:01.585Z,981.83
2017-12-01T07:27:08.461Z,981.84
2017-12-01T07:28:15.244Z,981.84
2017-12-01T07:29:22.031Z,981.86
2017-12-01T07:30:28.816Z,981.84
2017-12-01T07:31:35.680Z,981.89
2017-12-01T07:32:42.427Z,981.95
2017-12-01T07:33:49.208Z,981.96
2017-12-01T07:34:56.100Z,981.92
2017-12-01T07:36:02.905Z,981.97
2017-12-01T07:37:09.686Z,982.03
2017-12-01T07:38:16.755Z,982.06
2017-12-01T07:39:23.642Z,982.09
2017-12-01T07:40:30.548Z,982.13
2017-12-01T07:41:37.453Z,982.14
2017-12-01T07:42:44.292Z,982.11
2017-12-01T07:43:51.204Z,982.18
2017-12-01T07:44:58.032Z,982.19
2017-12-01T07:46:04.858Z,982.19
2017-12-01T07:47:11.668Z,982.13
2017-12-01T07:48:18.504Z,982.14
2017-12-01T07:49:25.441Z,982.13
2017-12-01T07:50:32.257Z,982.18
2017-12-01T07:51:39.108Z,982.26
2017-12-01T07:52:45.980Z,982.24
2017-12-01T07:53:52.821Z,982.29
2017-12-01T07:54:59.673Z,982.29
2017-12-01T07:56:06.484Z,982.39
2017-12-01T07:57:13.332Z,982.44
2017-12-01T07:58:20.189Z,982.44
2017-12-01T07:59:27.005Z,982.41
2017-12-01T08:00:33.868Z,982.45
2017-12-01T08:01:40.690Z,982.50
2017-12-01T08:02:47.756Z,982.52
2017-12-01T08:03:54.609Z,982.40
2017-12-01T08:05:01.425Z,982.43
2017-12-01T08:06:08.275Z,982.41
2017-12-01T08:07:15.184Z,982.45
2017-12-01T08:08:22.060Z,982.45
2017-12-01T08:09:29.028Z,982.50
2017-12-01T08:10:35.894Z,982.52
2017-12-01T08:11:42.786Z,982.58
2017-12-01T08:12:49.647Z,982.60
2017-12-01T08:13:56.540Z,982.51
2017-12-01T08:15:03.404Z,982.56
2017-12-01T08:16:10.302Z,982.60
2017-12-01T08:17:17.233Z,982.59
2017-12-01T08:18:24.404Z,982.68
2017-12-01T08:19:31.363Z,982.70
2017-12-01T08:20:38.264Z,982.65
2017-12-01T08:21:45.393Z,982.76
2017-12-01T08:22:52.352Z,982.68
2017-12-01T08:23:59.265Z,982.82
2017-12-01T08:26:11.106Z,982.74
2017-12-01T08:27:18.004Z,982.76
2017-12-01T08:28:24.833Z,982.85
2017-12-01T08:29:31.713Z,982.80
2017-12-01T08:30:38.576Z,982.90
2017-12-01T08:31:45.403Z,982.81
2017-12-01T08:32:52.311Z,982.89
2017-12-01T08:33:59.121Z,982.91
2017-12-01T08:35:05.945Z,982.93
2017-12-01T08:36:12.737Z,982.88
2017-12-01T08:37:19.584Z,982.90
2017-12-01T08:38:26.837Z,982.88
2017-12-01T08:39:33.178Z,982.94
2017-12-01T08:40:40.028Z,982.99
2017-12-01T08:41:46.972Z,983.02
2017-12-01T08:42:53.945Z,983.12
2017-12-01T08:44:00.886Z,983.08
2017-12-01T08:45:07.749Z,983.11
2017-12-01T08:46:14.546Z,983.07
2017-12-01T08:47:21.417Z,983.20
2017-12-01T08:48:28.279Z,983.15
2017-12-01T08:49:35.084Z,983.19
2017-12-01T08:50:41.950Z,983.21
2017-12-01T08:51:48.745Z,983.28
2017-12-01T08:52:55.621Z,983.21
2017-12-01T08:54:02.453Z,983.23
2017-12-01T08:55:09.277Z,983.25
2017-12-01T08:56:16.106Z,983.31
2017-12-01T08:57:22.908Z,983.31
2017-12-01T08:58:29.813Z,983.36
2017-12-01T08:59:36.634Z,983.30
2017-12-01T09:00:43.454Z,983.43
2017-12-01T09:01:50.269Z,983.39
2017-12-01T09:02:57.048Z,983.37
2017-12-01T09:04:03.845Z,983.44
2017-12-01T09:05:10.649Z,983.46
2017-12-01T09:06:17.491Z,983.40
2017-12-01T09:07:24.310Z,983.43
2017-12-01T09:08:31.241Z,983.44
2017-12-01T09:09:38.021Z,983.51
2017-12-01T09:10:44.805Z,983.53
2017-12-01T09:11:51.702Z,983.53
2017-12-01T09:12:58.543Z,983.53
2017-12-01T09:14:05.318Z,983.51
2017-12-01T09:15:12.170Z,983.57
2017-12-01T09:16:19.039Z,983.58
2017-12-01T09:17:25.906Z,983.54
2017-12-01T09:18:32.790Z,983.64
2017-12-01T09:19:39.669Z,983.65
2017-12-01T09:20:46.513Z,983.65
2017-12-01T09:21:53.314Z,983.70
2017-12-01T09:23:00.133Z,983.76
2017-12-01T09:24:06.993Z,983.73
2017-12-01T09:25:13.853Z,983.78
2017-12-01T09:26:20.632Z,983.78
2017-12-01T09:27:27.664Z,983.87
2017-12-01T09:28:34.589Z,983.83
2017-12-01T09:29:41.456Z,983.84
2017-12-01T09:30:48.295Z,983.91
2017-12-01T09:31:55.041Z,983.91
2017-12-01T09:33:01.855Z,983.95
2017-12-01T09:34:08.733Z,983.93
2017-12-01T09:35:15.506Z,983.92
2017-12-01T09:36:22.287Z,983.86
2017-12-01T09:37:29.134Z,983.92
2017-12-01T09:38:36.147Z,983.91
2017-12-01T09:39:42.960Z,983.98
2017-12-01T09:40:50.084Z,983.90
2017-12-01T09:41:56.952Z,983.91
2017-12-01T09:43:03.855Z,983.93
2017-12-01T09:44:10.749Z,984.02
2017-12-01T09:45:17.598Z,984.07
2017-12-01T09:46:24.541Z,984.10
2017-12-01T09:47:31.334Z,984.15
2017-12-01T09:48:38.178Z,984.16
2017-12-01T09:49:44.973Z,984.15
2017-12-01T09:50:51.732Z,984.23
2017-12-01T09:51:58.548Z,984.24
2017-12-01T09:53:05.380Z,984.23
2017-12-01T09:54:12.141Z,984.31
2017-12-01T09:55:18.915Z,984.26
2017-12-01T09:56:25.796Z,984.29
2017-12-01T09:57:32.616Z,984.23
2017-12-01T09:58:39.447Z,984.31
2017-12-01T09:59:46.200Z,984.31
2017-12-01T10:00:52.943Z,984.36
2017-12-01T10:01:59.808Z,984.40
2017-12-01T10:03:06.613Z,984.34
2017-12-01T10:04:13.397Z,984.28
2017-12-01T10:05:20.181Z,984.34
2017-12-01T10:06:26.914Z,984.36
2017-12-01T10:07:33.643Z,984.37
2017-12-01T10:08:40.383Z,984.39
2017-12-01T10:09:47.132Z,984.48
2017-12-01T10:10:53.864Z,984.51
2017-12-01T10:12:00.569Z,984.38
2017-12-01T10:13:07.385Z,984.45
2017-12-01T10:14:14.136Z,984.54
2017-12-01T10:15:20.860Z,984.48
2017-12-01T10:16:27.616Z,984.46
2017-12-01T10:17:34.368Z,984.56
2017-12-01T10:18:41.069Z,984.59
2017-12-01T10:19:47.840Z,984.55
2017-12-01T10:20:54.577Z,984.61
2017-12-01T10:22:01.411Z,984.56
2017-12-01T10:23:08.168Z,984.54
2017-12-01T10:24:14.900Z,984.50
2017-12-01T10:25:21.661Z,984.56
2017-12-01T10:26:28.465Z,984.52
2017-12-01T10:27:35.301Z,984.54
2017-12-01T10:28:42.092Z,984.57
2017-12-01T10:29:48.956Z,984.56
2017-12-01T10:30:55.676Z,984.54
2017-12-01T10:32:02.409Z,984.55
2017-12-01T10:33:09.120Z,984.59
2017-12-01T10:34:15.909Z,984.55
2017-12-01T10:35:22.660Z,984.61
2017-12-01T10:36:29.399Z,984.61
2017-12-01T10:37:36.142Z,984.67
2017-12-01T10:38:43.090Z,984.64
2017-12-01T10:39:49.816Z,984.70
2017-12-01T10:40:56.620Z,984.73
2017-12-01T10:42:03.394Z,984.75
2017-12-01T10:43:10.136Z,984.70
2017-12-01T10:44:17.008Z,984.77
2017-12-01T10:45:23.816Z,984.78
2017-12-01T10:46:30.553Z,984.78
2017-12-01T10:47:37.312Z,984.77
2017-12-01T10:48:44.037Z,984.81
2017-12-01T10:49:50.724Z,984.81
2017-12-01T10:50:57.511Z,984.78
2017-12-01T10:52:04.232Z,984.90
2017-12-01T10:53:10.975Z,984.84
2017-12-01T10:54:17.692Z,984.88
2017-12-01T10:55:24.396Z,984.91
2017-12-01T10:56:31.176Z,984.85
2017-12-01T10:57:37.904Z,984.93
2017-12-01T10:58:44.649Z,984.98
2017-12-01T10:59:51.376Z,984.94
2017-12-01T11:00:58.097Z,984.89
2017-12-01T11:02:04.881Z,984.99
2017-12-01T11:03:11.637Z,984.93
2017-12-01T11:04:18.371Z,984.91
2017-12-01T11:05:25.076Z,984.94
2017-12-01T11:06:31.918Z,984.99
2017-12-01T11:07:38.636Z,984.99
2017-12-01T11:08:45.372Z,984.93
2017-12-01T11:09:52.104Z,985.03
2017-12-01T11:10:58.816Z,984.97
2017-12-01T11:12:05.585Z,984.99
2017-12-01T11:13:12.302Z,984.97
2017-12-01T11:14:19.031Z,984.96
2017-12-01T11:15:25.739Z,984.96
2017-12-01T11:16:32.463Z,985.07
2017-12-01T11:17:39.252Z,985.07
2017-12-01T11:18:45.946Z,985.06
2017-12-01T11:19:52.704Z,985.10
2017-12-01T11:20:59.440Z,985.08
2017-12-01T11:22:06.150Z,985.07
2017-12-01T11:23:12.952Z,985.05
2017-12-01T11:24:19.754Z,985.03
2017-12-01T11:25:26.496Z,985.06
2017-12-01T11:26:33.304Z,984.97
2017-12-01T11:27:40.037Z,985.04
2017-12-01T11:28:46.756Z,985.08
2017-12-01T11:29:53.508Z,985.10
2017-12-01T11:31:00.216Z,985.07
2017-12-01T11:32:06.972Z,985.05
2017-12-01T11:33:13.739Z,985.13
2017-12-01T11:34:20.460Z,985.13
2017-12-01T11:35:27.189Z,985.12
2017-12-01T11:36:33.936Z,985.11
2017-12-01T11:37:40.643Z,985.13
2017-12-01T11:38:47.400Z,985.10
2017-12-01T11:39:54.101Z,985.11
2017-12-01T11:41:00.836Z,985.16
2017-12-01T11:42:07.624Z,985.17
2017-12-01T11:43:14.701Z,985.11
2017-12-01T11:44:21.533Z,985.18
2017-12-01T11:45:28.231Z,985.11
2017-12-01T11:46:34.974Z,985.21
2017-12-01T11:47:41.699Z,985.21
2017-12-01T11:48:48.404Z,985.31
2017-12-01T11:49:55.152Z,985.27
2017-12-01T11:51:01.870Z,985.30
2017-12-01T11:52:08.605Z,985.26
2017-12-01T11:53:15.359Z,985.29
2017-12-01T11:54:22.192Z,985.32
2017-12-01T11:55:28.988Z,985.33
2017-12-01T11:56:35.761Z,985.35
2017-12-01T11:57:42.486Z,985.35
2017-12-01T11:58:49.307Z,985.43
2017-12-01T11:59:56.068Z,985.38
2017-12-01T12:01:02.796Z,985.44
2017-12-01T12:02:09.652Z,985.39
2017-12-01T12:03:16.386Z,985.41
2017-12-01T12:04:23.181Z,985.45
2017-12-01T12:05:29.948Z,985.51
2017-12-01T12:06:36.708Z,985.43
2017-12-01T12:07:43.444Z,985.45
2017-12-01T12:08:50.304Z,985.45
2017-12-01T12:09:57.125Z,985.47
2017-12-01T12:11:03.933Z,985.48
2017-12-01T12:12:10.720Z,985.51
2017-12-01T12:13:17.548Z,985.50
2017-12-01T12:14:24.341Z,985.48
2017-12-01T12:15:31.126Z,985.56
2017-12-01T12:16:37.968Z,985.48
2017-12-01T12:17:44.785Z,985.59
2017-12-01T12:18:51.691Z,985.51
2017-12-01T12:19:58.498Z,985.58
2017-12-01T12:21:05.268Z,985.54
2017-12-01T12:22:12.152Z,985.58
2017-12-01T12:23:18.968Z,985.55
2017-12-01T12:24:25.789Z,985.52
2017-12-01T12:25:32.557Z,985.49
2017-12-01T12:26:39.448Z,985.56
2017-12-01T12:27:46.177Z,985.56
2017-12-01T12:28:52.965Z,985.58
2017-12-01T12:29:59.771Z,985.59
2017-12-01T12:31:06.544Z,985.66
2017-12-01T12:32:13.371Z,985.69
2017-12-01T12:33:20.129Z,985.71
2017-12-01T12:34:26.859Z,985.75
2017-12-01T12:35:33.635Z,985.68
2017-12-01T12:36:40.419Z,985.73
2017-12-01T12:37:47.151Z,985.64
2017-12-01T12:38:54.000Z,985.67
2017-12-01T12:40:00.847Z,985.66
2017-12-01T12:41:07.744Z,985.66
2017-12-01T12:42:14.593Z,985.63
2017-12-01T12:43:21.392Z,985.66
2017-12-01T12:44:28.129Z,985.71
2017-12-01T12:45:35.048Z,985.74
2017-12-01T12:46:41.789Z,985.68
2017-12-01T12:47:48.592Z,985.76
2017-12-01T12:48:55.315Z,985.71
2017-12-01T12:50:02.110Z,985.73
2017-12-01T12:51:08.870Z,985.79
2017-12-01T12:52:15.654Z,985.77
2017-12-01T12:53:22.504Z,985.79
2017-12-01T12:54:29.288Z,985.81
2017-12-01T12:55:36.124Z,985.82
2017-12-01T12:56:42.895Z,985.83
2017-12-01T12:57:49.688Z,985.70
2017-12-01T12:58:56.489Z,985.87
2017-12-01T13:00:03.299Z,985.88
2017-12-01T13:01:10.130Z,985.88
2017-12-01T13:02:17.052Z,985.90
2017-12-01T13:03:23.857Z,985.82
2017-12-01T13:04:30.652Z,985.87
2017-12-01T13:05:37.511Z,985.92
2017-12-01T13:06:44.340Z,985.95
2017-12-01T13:07:51.291Z,985.93
2017-12-01T13:08:58.137Z,985.98
2017-12-01T13:10:05.016Z,985.89
2017-12-01T13:11:11.845Z,985.89
2017-12-01T13:12:18.584Z,985.88
2017-12-01T13:13:25.413Z,985.93
2017-12-01T13:14:32.222Z,985.95
2017-12-01T13:15:39.056Z,985.95
2017-12-01T13:16:45.858Z,985.95
2017-12-01T13:17:52.652Z,985.96
2017-12-01T13:18:59.628Z,985.96
2017-12-01T13:20:06.405Z,985.99
2017-12-01T13:21:13.228Z,986.00
2017-12-01T13:22:20.020Z,986.08
2017-12-01T13:23:26.765Z,986.04
2017-12-01T13:24:33.664Z,986.09
2017-12-01T13:25:40.423Z,986.09
2017-12-01T13:26:47.135Z,986.09
2017-12-01T13:27:53.964Z,985.96
2017-12-01T13:29:00.804Z,986.03
2017-12-01T13:30:07.556Z,986.03
2017-12-01T13:31:14.284Z,986.09
2017-12-01T13:32:21.111Z,986.04
2017-12-01T13:33:27.832Z,986.02
2017-12-01T13:34:34.620Z,986.04
2017-12-01T13:35:41.392Z,986.06
2017-12-01T13:36:48.228Z,986.10
2017-12-01T13:37:54.996Z,986.10
2017-12-01T13:39:01.784Z,986.04
2017-12-01T13:40:08.623Z,986.06
2017-12-01T13:41:15.409Z,986.10
2017-12-01T13:42:22.179Z,986.04
2017-12-01T13:43:29.040Z,986.16
2017-12-01T13:44:35.768Z,986.08
2017-12-01T13:45:42.539Z,986.16
2017-12-01T13:46:49.256Z,986.08
2017-12-01T13:47:56.140Z,986.17
2017-12-01T13:49:02.976Z,986.10
2017-12-01T13:50:09.749Z,986.16
2017-12-01T13:51:16.609Z,986.18
2017-12-01T13:52:23.365Z,986.16
2017-12-01T13:53:30.273Z,986.17
2017-12-01T13:54:37.135Z,986.19